Latest Weather Observations for Archerfield

IDQ60801

Issued at 5:35 pm EST Wednesday 3 September 2014 (issued every 30 minutes, with the page automatically refreshed every 10 minutes)

About weather observations | Map of weather stations | Latest weather observations for QLD | Other Formats
Station Details ID: 040211 Name: ARCHERFIELD AIRPORT Lat: -27.57 Lon: 153.01 Height: 12.5 m
Data from the previous 72 hours. | See also: Recent months at Archerfield
Date/Time
EST
Temp
°C
App
Temp
°C
Dew
Point
Rel
Hum
%
Delta-T
°C
Wind Press
QNH
hPa
Press
MSL
hPa
Rain
since 9 am
mm
Dir
 
Spd
km/h
Gust
km/h
Spd
kts
Gust
kts
03/05:30pm 19.5 12.8 -1.0 25 8.8 WSW 24 32 13 17 1011.1 1011.0 0.0
03/05:00pm 20.4 14.4 -1.4 23 9.4 WSW 20 32 11 17 1010.5 1010.4 0.0
03/04:30pm 21.2 13.6 -2.0 21 9.9 WSW 28 39 15 21 1010.0 1009.9 0.0
03/04:00pm 22.0 14.8 -2.0 20 10.4 WSW 26 43 14 23 1009.7 1009.6 0.0
03/03:30pm 22.2 13.8 -2.5 19 10.6 W 32 41 17 22 1009.3 1009.2 0.0
03/03:00pm 22.5 15.0 -1.6 20 10.6 W 28 41 15 22 1009.1 1009.0 0.0
03/02:30pm 22.3 13.7 -2.4 19 10.6 WSW 33 46 18 25 1008.8 1008.7 0.0
03/02:12pm 22.4 14.1 -1.6 20 10.5 WSW 32 52 17 28 1008.9 1008.8 0.0
03/02:00pm 22.3 13.1 -1.7 20 10.5 WSW 37 48 20 26 1009.1 1009.0 0.0
03/01:30pm 22.0 14.1 -1.3 21 10.2 WSW 30 43 16 23 1009.3 1009.2 0.0
03/01:13pm 22.5 14.3 -0.9 21 10.4 W 32 52 17 28 1009.4 1009.3 0.0
03/01:00pm 22.4 15.1 -0.3 22 10.2 WSW 28 37 15 20 1009.6 1009.5 0.0
03/12:30pm 21.4 12.6 -1.2 22 9.9 WSW 35 54 19 29 1010.2 1010.1 0.0
03/12:00pm 20.9 12.3 0.2 25 9.3 WSW 35 48 19 26 1010.6 1010.5 0.0
03/11:30am 20.9 12.4 1.2 27 9.0 WSW 35 48 19 26 1010.9 1010.8 0.0
03/11:06am 20.6 12.1 1.0 27 8.9 W 35 57 19 31 1011.0 1010.9 0.0
03/11:00am 20.4 12.5 0.8 27 8.8 W 32 46 17 25 1011.3 1011.2 0.0
03/10:30am 19.6 12.9 1.6 30 8.2 W 26 43 14 23 1011.8 1011.7 0.0
03/10:00am 18.3 12.8 1.8 33 7.5 W 20 30 11 16 1012.2 1012.1 0.0
03/09:30am 17.4 10.4 1.8 35 7.0 W 28 35 15 19 1012.4 1012.3 0.0
03/09:00am 16.5 9.5 2.2 38 6.4 WNW 28 33 15 18 1012.5 1012.4 0.0
03/08:30am 15.6 9.0 2.1 40 6.0 W 26 39 14 21 1012.4 1012.3 0.0
03/08:00am 14.8 9.0 2.4 43 5.5 W 22 28 12 15 1012.7 1012.6 0.0
03/07:30am 13.4 9.4 2.6 48 4.8 W 13 20 7 11 1013.0 1012.9 0.0
03/07:00am 12.2 9.3 2.6 52 4.2 W 7 17 4 9 1012.7 1012.6 0.0
03/06:30am 10.5 6.2 3.1 60 3.2 W 15 19 8 10 1012.3 1012.2 0.0
03/06:00am 10.2 6.2 2.6 59 3.3 WSW 13 17 7 9 1012.3 1012.2 0.0
03/05:30am 10.7 6.6 2.5 57 3.5 WSW 13 19 7 10 1011.9 1011.8 0.0
03/05:00am 11.2 7.9 2.2 54 3.9 SW 9 11 5 6 1011.6 1011.5 0.0
03/04:30am 10.6 6.5 2.2 56 3.6 W 13 17 7 9 1011.2 1011.1 0.0
03/04:00am 10.5 6.4 2.1 56 3.6 W 13 17 7 9 1011.5 1011.4 0.0
03/03:30am 12.1 7.2 1.7 49 4.4 WSW 17 22 9 12 1011.5 1011.4 0.0
03/03:00am 12.5 7.5 1.5 47 4.7 WSW 17 24 9 13 1011.7 1011.6 0.0
03/02:30am 13.1 7.7 1.1 44 5.1 SW 19 22 10 12 1012.0 1011.9 0.0
03/02:00am 12.8 8.2 1.8 47 4.7 WSW 15 22 8 12 1012.3 1012.2 0.0
03/01:30am 12.3 8.5 1.6 48 4.6 WSW 11 15 6 8 1012.6 1012.5 0.0
03/01:00am 13.6 9.0 1.6 44 5.2 SW 15 20 8 11 1012.8 1012.7 0.0
03/12:30am 14.0 9.8 1.6 43 5.4 SW 13 20 7 11 1012.8 1012.7 0.0
03/12:00am 13.8 9.9 1.1 42 5.4 SW 11 13 6 7 1013.0 1012.9 0.0
 
Date/Time
EST
Temp
°C
App
Temp
°C
Dew
Point
Rel
Hum
%
Delta-T
°C
Wind Press
QNH
hPa
Press
MSL
hPa
Rain
since 9 am
mm
Dir
 
Spd
km/h
Gust
km/h
Spd
kts
Gust
kts
02/11:30pm 14.6 9.9 1.2 40 5.8 SW 15 20 8 11 1013.0 1012.9 0.0
02/11:00pm 15.6 10.9 1.0 37 6.3 WSW 15 24 8 13 1012.9 1012.8 0.0
02/10:30pm 16.1 11.0 0.7 35 6.7 WSW 17 22 9 12 1012.7 1012.6 0.0
02/10:00pm 16.7 11.0 0.8 34 6.9 WSW 20 30 11 16 1012.6 1012.5 0.0
02/09:30pm 17.2 11.7 1.6 35 6.9 WSW 20 26 11 14 1012.6 1012.5 0.0
02/09:00pm 18.0 12.5 1.9 34 7.3 WSW 20 28 11 15 1012.5 1012.4 0.0
02/08:30pm 18.5 12.0 2.4 34 7.4 SW 26 37 14 20 1012.3 1012.2 0.0
02/08:00pm 19.4 12.3 3.6 35 7.5 SW 30 43 16 23 1011.9 1011.8 0.0
02/07:30pm 20.3 13.4 2.6 31 8.3 WSW 28 46 15 25 1011.0 1010.9 0.0
02/07:29pm 20.3 13.4 2.6 31 8.3 WSW 28 46 15 25 1011.0 1010.9 0.0
02/07:00pm 20.8 14.8 3.1 31 8.4 WSW 24 35 13 19 1010.5 1010.4 0.0
02/06:30pm 21.4 16.0 4.5 33 8.2 WSW 22 32 12 17 1009.8 1009.7 0.0
02/06:00pm 22.1 15.2 4.6 32 8.6 WSW 30 44 16 24 1009.2 1009.1 0.0
02/05:31pm 22.9 15.9 3.9 29 9.3 WSW 30 52 16 28 1008.6 1008.5 0.0
02/05:30pm 22.8 15.8 3.9 29 9.2 WSW 30 43 16 23 1008.6 1008.5 0.0
02/05:03pm 24.0 14.4 3.3 26 10.1 WSW 43 61 23 33 1008.1 1008.0 0.0
02/05:00pm 24.0 15.1 3.3 26 10.1 WSW 39 52 21 28 1008.0 1007.9 0.0
02/04:30pm 25.1 16.1 2.5 23 10.9 WSW 39 52 21 28 1007.4 1007.3 0.0
02/04:18pm 25.5 16.4 1.6 21 11.4 WSW 39 57 21 31 1007.1 1007.0 0.0
02/04:00pm 26.3 16.8 1.6 20 11.9 WSW 41 52 22 28 1006.7 1006.6 0.0
02/03:55pm 26.9 17.9 2.7 21 11.9 WSW 39 52 21 28 1006.6 1006.5 0.0
02/03:37pm 28.2 19.9 2.4 19 12.7 W 35 56 19 30 1006.0 1005.9 0.0
02/03:30pm 28.0 20.2 3.0 20 12.4 W 33 48 18 26 1005.9 1005.8 0.0
02/03:13pm 28.7 20.1 2.8 19 12.9 W 37 56 20 30 1005.9 1005.8 0.0
02/03:00pm 28.6 21.7 2.7 19 12.9 WNW 28 48 15 26 1005.9 1005.8 0.0
02/02:30pm 28.0 22.9 7.8 28 10.9 NNW 24 32 13 17 1006.2 1006.1 0.0
02/02:00pm 28.6 24.6 8.3 28 11.1 NNW 19 33 10 18 1006.7 1006.6 0.0
02/01:30pm 26.6 24.1 8.1 31 10.0 N 11 20 6 11 1007.6 1007.5 0.0
02/01:00pm 25.0 22.9 9.7 38 8.4 NNW 11 17 6 9 1008.5 1008.4 0.0
02/12:30pm 24.8 22.4 9.9 39 8.2 N 13 19 7 10 1009.5 1009.4 0.0
02/12:00pm 23.7 22.1 8.9 39 8.0 NW 7 13 4 7 1010.2 1010.1 0.0
02/11:30am 22.4 21.1 9.2 43 7.1 W 6 15 3 8 1010.9 1010.8 0.0
02/11:00am 20.6 19.9 10.1 51 5.7 N 4 7 2 4 1011.7 1011.6 0.0
02/10:30am 19.7 19.9 10.7 56 4.9 CALM 0 7 0 4 1012.4 1012.3 0.0
02/10:00am 19.1 18.3 10.9 59 4.5 NE 6 9 3 5 1012.9 1012.8 0.0
02/09:30am 18.1 17.6 12.1 68 3.3 SSE 6 7 3 4 1013.4 1013.3 0.0
02/09:00am 17.4 17.6 11.9 70 3.0 NNE 2 6 1 3 1013.8 1013.7 0.0
02/08:30am 16.1 17.3 13.8 86 1.3 CALM 0 0 0 0 1013.9 1013.8 0.0
02/08:00am 15.0 15.8 13.7 92 0.7 S 2 6 1 3 1014.3 1014.2 0.0
02/07:30am 14.2 14.2 13.6 96 0.3 SE 6 7 3 4 1014.3 1014.2 0.0
02/07:00am 13.3 13.0 12.7 96 0.3 S 6 7 3 4 1014.1 1014.0 0.0
02/06:30am 12.8 12.2 12.2 96 0.3 S 7 9 4 5 1014.1 1014.0 0.0
02/06:00am 12.2 11.5 11.4 95 0.4 S 6 7 3 4 1014.0 1013.9 0.0
02/05:30am 12.5 13.0 11.6 94 0.5 CALM 0 0 0 0 1014.0 1013.9 0.0
02/05:00am 12.6 13.1 11.7 94 0.5 CALM 0 0 0 0 1013.8 1013.7 0.0
02/04:30am 12.9 13.5 12.0 94 0.5 CALM 0 0 0 0 1013.8 1013.7 0.0
02/04:00am 13.3 14.1 12.5 95 0.4 CALM 0 0 0 0 1014.0 1013.9 0.0
02/03:30am 13.1 13.8 12.3 95 0.4 CALM 0 0 0 0 1013.9 1013.8 0.0
02/03:00am 13.5 13.9 12.6 94 0.5 S 2 6 1 3 1014.0 1013.9 0.0
02/02:30am 13.6 14.5 12.8 95 0.4 CALM 0 7 0 4 1014.3 1014.2 0.0
02/02:23am 14.1 15.2 13.6 97 0.3 CALM 0 0 0 0 1014.2 1014.1 0.0
02/02:00am 12.9 13.5 12.0 94 0.5 CALM 0 0 0 0 1014.6 1014.5 0.0
02/01:45am 12.3 12.5 10.5 89 0.9 CALM 0 0 0 0 1014.6 1014.5 0.0
02/01:30am 13.9 13.4 12.6 92 0.7 WSW 7 9 4 5 1014.6 1014.5 0.0
02/01:00am 14.5 14.3 13.0 91 0.8 W 6 9 3 5 1015.1 1015.0 0.0
02/12:30am 14.9 15.1 14.1 95 0.5 N 6 7 3 4 1015.3 1015.2 0.0
02/12:00am 14.5 13.4 13.0 91 0.8 N 11 13 6 7 1015.5 1015.4 0.0
 
Date/Time
EST
Temp
°C
App
Temp
°C
Dew
Point
Rel
Hum
%
Delta-T
°C
Wind Press
QNH
hPa
Press
MSL
hPa
Rain
since 9 am
mm
Dir
 
Spd
km/h
Gust
km/h
Spd
kts
Gust
kts
01/11:30pm 15.3 14.7 13.5 89 1.0 N 9 11 5 6 1015.5 1015.4 0.0
01/11:00pm 16.0 15.0 13.5 85 1.4 N 11 15 6 8 1015.5 1015.4 0.0
01/10:30pm 17.1 15.7 14.4 84 1.5 N 15 22 8 12 1015.4 1015.3 0.0
01/10:00pm 17.6 16.0 15.0 85 1.5 N 17 24 9 13 1015.4 1015.3 0.0
01/09:30pm 18.0 15.9 15.3 84 1.6 N 20 26 11 14 1015.6 1015.5 0.0
01/09:00pm 18.3 16.9 15.6 84 1.6 N 17 26 9 14 1015.8 1015.7 0.0
01/08:30pm 18.6 15.9 15.7 83 1.7 NNE 24 30 13 16 1015.8 1015.7 0.0
01/08:00pm 18.8 16.4 15.5 81 1.9 N 22 28 12 15 1015.8 1015.7 0.0
01/07:30pm 19.2 17.3 15.3 78 2.3 N 19 24 10 13 1016.1 1016.0 0.0
01/07:00pm 19.3 16.4 15.0 76 2.5 N 24 33 13 18 1015.7 1015.6 0.0
01/06:30pm 19.4 16.4 14.9 75 2.6 N 24 32 13 17 1015.4 1015.3 0.0
01/06:00pm 19.3 16.2 14.6 74 2.7 N 24 32 13 17 1015.2 1015.1 0.0
01/05:30pm 20.0 16.5 14.4 70 3.3 N 26 35 14 19 1015.1 1015.0 0.0
01/05:00pm 21.1 18.1 13.8 63 4.2 NNE 22 35 12 19 1015.2 1015.1 0.0
01/04:30pm 22.0 18.2 13.6 59 4.9 N 26 33 14 18 1014.8 1014.7 0.0
01/04:00pm 22.8 18.9 13.3 55 5.5 NNE 26 32 14 17 1014.4 1014.3 0.0
01/03:30pm 23.5 19.3 12.5 50 6.3 NNE 26 32 14 17 1014.3 1014.2 0.0
01/03:00pm 24.1 20.3 12.4 48 6.7 N 24 32 13 17 1014.6 1014.5 0.0
01/02:30pm 25.1 21.6 12.3 45 7.3 N 22 32 12 17 1014.7 1014.6 0.0
01/02:00pm 25.1 22.3 12.7 46 7.2 N 19 24 10 13 1015.0 1014.9 0.0
01/01:30pm 25.2 23.4 12.1 44 7.5 N 13 19 7 10 1015.5 1015.4 0.0
01/01:00pm 24.8 22.6 10.7 41 7.9 WNW 13 26 7 14 1016.1 1016.0 0.0
01/12:30pm 25.1 22.9 9.4 37 8.6 NW 11 20 6 11 1016.5 1016.4 0.0
01/12:00pm 24.7 24.3 12.3 46 7.1 W 6 9 3 5 1016.9 1016.8 0.0
01/11:30am 24.3 24.2 13.8 52 6.2 NNW 7 13 4 7 1017.6 1017.5 0.0
01/11:00am 22.6 21.4 12.8 54 5.6 N 11 20 6 11 1018.3 1018.2 0.0
01/10:30am 22.7 22.5 13.7 56 5.2 W 7 9 4 5 1018.9 1018.8 0.0
01/10:00am 21.7 21.8 13.9 61 4.5 W 6 11 3 6 1019.3 1019.2 0.0
01/09:30am 20.6 20.7 13.8 65 3.9 WSW 6 9 3 5 1019.6 1019.6 0.0
01/09:00am 19.5 19.7 14.1 71 3.1 W 6 9 3 5 1019.8 1019.8 0.0
01/08:30am 18.2 18.2 14.1 77 2.4 S 7 11 4 6 1019.8 1019.8 0.0
01/08:00am 16.8 16.7 13.9 83 1.6 S 7 11 4 6 1019.8 1019.8 0.0
01/07:30am 15.5 16.7 13.9 90 0.9 CALM 0 0 0 0 1019.3 1019.3 0.0
01/07:00am 14.0 15.0 13.1 94 0.5 CALM 0 0 0 0 1019.2 1019.2 0.0
01/06:30am 12.6 12.4 11.8 95 0.4 S 4 6 2 3 1018.9 1018.9 0.0
01/06:00am 11.6 11.5 10.7 94 0.5 SSW 2 6 1 3 1018.9 1018.9 0.0
01/05:30am 12.3 11.6 11.4 94 0.5 S 6 7 3 4 1018.4 1018.4 0.0
01/05:00am 12.9 12.4 12.0 94 0.5 SSE 6 7 3 4 1018.0 1018.0 0.0
01/04:30am 12.5 12.9 11.1 91 0.7 CALM 0 4 0 2 1018.1 1018.1 0.0
01/04:00am 13.3 13.5 11.9 91 0.7 SSE 2 6 1 3 1018.0 1018.0 0.0
01/03:30am 13.8 14.4 12.0 89 1.0 CALM 0 0 0 0 1018.0 1018.0 0.0
01/03:00am 14.5 15.5 13.2 92 0.7 CALM 0 0 0 0 1018.2 1018.2 0.0
01/02:30am 14.1 13.9 13.1 94 0.6 SW 6 7 3 4 1018.2 1018.2 0.0
01/02:00am 13.4 13.7 12.3 93 0.6 W 2 6 1 3 1018.3 1018.3 0.0
01/01:30am 14.2 13.4 12.9 92 0.7 SSE 9 11 5 6 1018.4 1018.4 0.0
01/01:00am 14.5 15.3 12.7 89 1.0 CALM 0 0 0 0 1018.5 1018.5 0.0
01/12:30am 14.5 15.5 13.2 92 0.7 CALM 0 0 0 0 1018.6 1018.6 0.0
01/12:00am 14.1 14.7 12.0 87 1.1 CALM 0 0 0 0 1018.7 1018.7 0.0
 
Date/Time
EST
Temp
°C
App
Temp
°C
Dew
Point
Rel
Hum
%
Delta-T
°C
Wind Press
QNH
hPa
Press
MSL
hPa
Rain
since 9 am
mm
Dir
 
Spd
km/h
Gust
km/h
Spd
kts
Gust
kts
31/11:30pm 14.8 15.8 13.2 90 0.9 CALM 0 0 0 0 1018.8 1018.8 0.0
31/11:00pm 14.8 15.2 12.5 86 1.3 E 2 6 1 3 1018.8 1018.8 0.0
31/10:30pm 16.0 17.2 13.7 86 1.3 CALM 0 0 0 0 1018.8 1018.8 0.0
31/10:00pm 16.0 17.2 13.7 86 1.3 CALM 0 0 0 0 1018.8 1018.8 0.0
31/09:30pm 16.2 17.3 13.5 84 1.5 CALM 0 2 0 1 1018.6 1018.6 0.0
31/09:00pm 16.5 16.2 13.4 82 1.7 NE 7 9 4 5 1018.5 1018.5 0.0
31/08:30pm 16.9 16.7 13.6 81 1.9 NNE 7 9 4 5 1018.5 1018.5 0.0
31/08:00pm 17.4 16.9 13.7 79 2.1 NNE 9 11 5 6 1018.3 1018.3 0.0
31/07:30pm 18.2 16.8 13.5 74 2.7 ENE 13 19 7 10 1018.2 1018.2 0.0
31/07:00pm 18.8 17.5 13.6 72 3.0 ENE 13 17 7 9 1017.8 1017.8 0.0
31/06:30pm 19.0 17.2 13.2 69 3.3 ENE 15 19 8 10 1017.4 1017.4 0.0
31/06:00pm 19.4 17.1 12.9 66 3.7 ENE 17 22 9 12 1017.1 1017.1 0.0

Other Formats:

Comma delimited format used in spreadsheet applications
http://www.bom.gov.au/fwo/IDQ60801/IDQ60801.94575.axf

JavaScript Object Notation format (JSON) in row-major order
http://www.bom.gov.au/fwo/IDQ60801/IDQ60801.94575.json